• Join FlightAware (Why Join?)
  • Login
  • US Flag 
07:49PM EDT


 

Airport Tracker/Info


-or-


 

Live Flight TrackerFlight Track Log ✈ ASQ5929 ✈ 06-Sep-2013 ✈ MMMX / MEX - KIAH

Flight Track Log - Related Links

Times and Time Zones

All times are in EDT time to prevent confusion due to time zone crossing. See the ASQ5929 flight status page for this flight to view local times or setup timezone preferences in your user account.

Time Position Orientation Groundspeed Altitude Reporting Facility
EDT Latitude Longitude Course Direction KTS MPH feet Rate Location/Type
05:10PM 24.8797 -97.2304 55° Northeast  Level Estimated
05:11PM 24.9907 -97.1912 49° Northeast  Level Estimated
05:12PM 25.1016 -97.1519 49° Northeast  Level Estimated
05:13PM 25.2126 -97.1126 49° Northeast  Level Estimated
05:14PM 25.3235 -97.0732 49° Northeast  Level Estimated
05:15PM 25.4345 -97.0337 49° Northeast  Level Estimated
05:16PM 25.5454 -96.9941 49° Northeast  Level Estimated
05:16PM 25.2958 -97.5747 49° Northeast 452 520 37,000  Level Houston Center
05:17PM 25.6563 -96.9545 49° Northeast  Level Estimated
05:17PM 25.4450 -97.5592 North 449 517 37,000  Level Houston Center
05:18PM 25.7672 -96.9148 49° Northeast  Level Estimated
05:18PM 25.5767 -97.5439 North 448 516 37,000  Level Houston Center
05:19PM 25.8781 -96.8750 49° Northeast  Level Estimated
05:19PM 25.7008 -97.5325 North 449 517 37,000  Level Houston Center
05:20PM 25.9890 -96.8352 49° Northeast  Level Estimated
05:20PM 25.8342 -97.5275 North 447 514 37,000  Level Houston Center
05:21PM 26.0998 -96.7952 49° Northeast  Level Estimated
05:21PM 25.9594 -97.5219 North 449 517 37,000  Level Houston Center
05:22PM 26.0939 -97.5025 North 461 531 37,000  Level Houston Center
05:23PM 26.2156 -97.4575 18° North 463 533 37,000  Level Houston Center
05:24PM 26.3456 -97.4094 18° North 459 528 37,000  Level Houston Center
05:25PM 26.4669 -97.3639 19° North 461 531 37,000  Level Houston Center
05:26PM 26.5964 -97.3142 19° North 458 527 37,000  Level Houston Center
05:27PM 26.7156 -97.2692 19° North 453 521 37,000  Level Houston Center
05:28PM 26.8439 -97.2214 18° North 450 518 37,000 -60 Level Houston Center
05:29PM 26.9597 -97.1781 18° North 451 519 36,900  Descending Houston Center
05:30PM 27.0783 -97.1325 19° North 451 519 37,000  Climbing Houston Center
05:31PM 27.1981 -97.0856 19° North 455 524 37,000  Level Houston Center
05:32PM 27.3175 -97.0400 19° North 455 524 37,000  Level Houston Center
05:33PM 27.4583 -96.9864 19° North 455 524 37,000  Level Houston Center
05:34PM 27.5789 -96.9400 19° North 457 526 37,000  Level Houston Center
05:35PM 27.6994 -96.8936 19° North 458 527 37,000 -60 Level Houston Center
05:36PM 27.8194 -96.8458 19° North 458 527 36,900  Descending Houston Center
05:37PM 27.9397 -96.8006 18° North 457 526 37,000  Climbing Houston Center
05:38PM 28.0836 -96.7431 19° North 456 525 37,000 -300 Level Houston Center
05:39PM 28.2039 -96.6972 19° North 457 526 36,400 -1,320 Descending Houston Center
05:40PM 28.3250 -96.6506 19° North 459 528 34,300 -2,160 Descending Houston Center
05:41PM 28.4456 -96.6028 19° North 460 529 32,000 -2,340 Descending Houston Center
05:43PM 28.5644 -96.5564 19° North 456 525 29,500 -2,460 Descending Houston Center
05:44PM 28.6811 -96.5108 19° North 447 514 27,000 -2,640 Descending Houston Center
05:45PM 28.8222 -96.4553 19° North 448 516 24,100 -2,400 Descending Houston Center
05:46PM 28.9375 -96.4089 19° North 444 511 22,100 -2,040 Descending Houston Center
05:47PM 29.0475 -96.3661 19° North 429 494 20,000 -2,280 Descending Houston Center
05:48PM 29.1556 -96.3231 19° North 418 481 17,500 -2,760 Descending Houston Center
05:48PM 29.1783 -96.3153 17° North 415 478 17,000 -2,520 Descending Houston Center
05:49PM 29.2622 -96.2808 20° North 412 474 14,900 -2,520 Descending Houston Center
05:49PM 29.3306 -96.2531 20° North 385 443 13,200 -2,760 Descending Houston Center
05:50PM 29.3808 -96.2342 18° North 382 440 12,100 -1,980 Descending Houston Center
05:50PM 29.4319 -96.2131 20° North 346 398 11,200 -1,560 Descending Houston Center
05:51PM 29.4697 -96.1975 20° North 348 400 10,500 -1,020 Descending Houston Center
05:51PM 29.5275 -96.1758 18° North 330 380 10,100 -540 Descending Houston Center
05:52PM 29.5497 -96.1519 43° Northeast 332 382 10,000  Descending Houston Center
05:52PM 29.5742 -96.1083 57° Northeast 321 369 10,100  Climbing Houston Center
05:53PM 29.5981 -96.0636 58° Northeast 327 376 10,000 -120 Descending Houston Center
05:53PM 29.6281 -96.0036 60° Northeast 329 379 10,000  Level Houston Center
05:54PM 29.6533 -95.9792 40° Northeast 323 372 10,000 -600 Level Houston Center
05:54PM 29.6975 -95.9572 23° Northeast 267 307 9,400 -1,200 Descending Houston Center
05:55PM 29.7253 -95.9447 21° North 283 326 8,800 -1,440 Descending Houston Center
05:55PM 29.7639 -95.9256 23° Northeast 281 323 8,100 -1,380 Descending Houston Center
05:56PM 29.7900 -95.8997 41° Northeast 274 315 7,400 -1,140 Descending Houston Center
05:56PM 29.8131 -95.8622 55° Northeast 266 306 7,000 -420 Descending Houston Center
05:57PM 29.8317 -95.8278 58° Northeast 268 308 7,000 -420 Level Houston Center
05:57PM 29.8528 -95.7903 57° Northeast 266 306 6,600 -1,200 Descending Houston Center
05:58PM 29.8803 -95.7406 57° Northeast 268 308 5,800 -1,320 Descending Houston Center
05:58PM 29.8925 -95.7181 58° Northeast 269 310 5,300 -1,260 Descending Houston Center
05:59PM 29.9206 -95.6703 56° Northeast 265 305 4,500 -1,320 Descending Houston Center
05:59PM 29.9364 -95.6431 56° Northeast 258 297 4,000 -1,140 Descending Houston Center
06:00PM 29.9706 -95.5789 58° Northeast 254 292 3,100 -600 Descending Houston Center
06:01PM 29.9939 -95.5297 61° Northeast 256 295 3,000 -660 Descending Houston Center
06:01PM 29.9928 -95.4989 92° East 241 277 2,400 -1,200 Descending Houston Center
06:02PM 29.9942 -95.4539 88° East 244 281 1,800 -1,020 Descending Houston Center
06:02PM 29.9928 -95.4314 94° East 172 198 1,400 -780 Descending Houston Center
06:03PM 29.9942 -95.4028 87° East 195 224 1,000 -840 Descending Houston Center
06:03PM 29.9928 -95.3856 95° East 131 151 600 -600 Descending Houston Center
06:04PM 29.9939 -95.3581 87° East 157 181 400 -300 Descending Houston Center